createdAt,value
2023-09-29T00:01:43.704Z,4.88
2023-09-29T00:04:11.302Z,5.00
2023-09-29T00:06:38.164Z,4.95
2023-09-29T00:09:07.679Z,4.72
2023-09-29T00:11:35.114Z,4.78
2023-09-29T00:14:02.372Z,4.68
2023-09-29T00:16:29.224Z,4.57
2023-09-29T00:18:57.018Z,4.97
2023-09-29T00:21:24.246Z,4.93
2023-09-29T00:23:51.260Z,5.05
2023-09-29T00:26:18.538Z,5.00
2023-09-29T00:28:45.592Z,5.10
2023-09-29T00:31:12.477Z,4.72
2023-09-29T00:33:39.375Z,4.60
2023-09-29T00:36:06.409Z,4.47
2023-09-29T00:38:34.692Z,4.30
2023-09-29T00:41:02.378Z,4.90
2023-09-29T00:43:29.578Z,4.55
2023-09-29T00:45:57.074Z,4.72
2023-09-29T00:48:24.303Z,3.83
2023-09-29T00:50:51.603Z,4.65
2023-09-29T00:53:20.332Z,4.40
2023-09-29T00:55:49.287Z,4.35
2023-09-29T00:58:17.037Z,3.95
2023-09-29T01:00:46.221Z,4.65
2023-09-29T01:03:16.281Z,4.53
2023-09-29T01:05:48.001Z,4.50
2023-09-29T01:08:21.622Z,4.57
2023-09-29T01:10:50.026Z,4.57
2023-09-29T01:13:17.418Z,4.60
2023-09-29T01:15:44.342Z,4.80
2023-09-29T01:18:11.833Z,4.45
2023-09-29T01:20:40.782Z,5.10
2023-09-29T01:23:08.509Z,5.43
2023-09-29T01:25:36.313Z,5.05
2023-09-29T01:28:08.667Z,5.18
2023-09-29T01:30:37.539Z,4.40
2023-09-29T01:33:05.000Z,5.35
2023-09-29T01:35:32.004Z,5.20
2023-09-29T01:38:02.376Z,4.97
2023-09-29T01:40:30.025Z,4.78
2023-09-29T01:42:57.713Z,5.78
2023-09-29T01:45:26.497Z,4.88
2023-09-29T01:47:53.868Z,5.30
2023-09-29T01:50:22.424Z,4.95
2023-09-29T01:52:51.014Z,4.20
2023-09-29T01:55:23.935Z,4.63
2023-09-29T01:57:54.750Z,4.28
2023-09-29T02:00:31.216Z,4.80
2023-09-29T02:03:01.492Z,5.32
2023-09-29T02:05:28.663Z,4.97
2023-09-29T02:07:55.899Z,5.40
2023-09-29T02:10:23.820Z,4.72
2023-09-29T02:12:59.264Z,5.22
2023-09-29T02:15:27.846Z,5.38
2023-09-29T02:17:55.175Z,5.68
2023-09-29T02:20:29.670Z,6.00
2023-09-29T02:25:27.362Z,6.25
2023-09-29T02:27:58.258Z,7.95
2023-09-29T02:30:26.677Z,7.60
2023-09-29T02:32:54.576Z,7.95
2023-09-29T02:35:22.058Z,7.80
2023-09-29T02:37:49.325Z,8.88
2023-09-29T02:40:16.290Z,8.65
2023-09-29T02:42:45.612Z,7.95
2023-09-29T02:45:13.134Z,8.32
2023-09-29T02:47:43.362Z,7.70
2023-09-29T02:50:12.053Z,8.82
2023-09-29T02:52:40.848Z,9.30
2023-09-29T02:55:13.795Z,10.32
2023-09-29T02:57:44.406Z,10.30
2023-09-29T03:00:16.892Z,9.73
2023-09-29T03:02:44.461Z,10.23
2023-09-29T03:05:15.836Z,9.77
2023-09-29T03:07:43.757Z,10.07
2023-09-29T03:10:15.845Z,9.90
2023-09-29T03:12:44.434Z,10.05
2023-09-29T03:15:14.758Z,9.77
2023-09-29T03:17:41.649Z,11.30
2023-09-29T03:20:12.414Z,9.65
2023-09-29T03:22:44.559Z,9.00
2023-09-29T03:25:12.069Z,9.38
2023-09-29T03:27:40.290Z,9.90
2023-09-29T03:30:09.744Z,8.65
2023-09-29T03:32:36.715Z,8.15
2023-09-29T03:35:06.182Z,8.07
2023-09-29T03:37:39.113Z,8.23
2023-09-29T03:40:09.664Z,8.45
2023-09-29T03:42:38.391Z,7.88
2023-09-29T03:45:07.002Z,6.55
2023-09-29T03:47:37.387Z,7.25
2023-09-29T03:50:13.469Z,7.70
2023-09-29T03:52:43.267Z,7.38
2023-09-29T03:55:11.213Z,6.82
2023-09-29T03:57:39.590Z,6.88
2023-09-29T04:00:12.500Z,6.57
2023-09-29T04:02:43.061Z,6.40
2023-09-29T04:05:10.650Z,6.05
2023-09-29T04:07:40.689Z,5.85
2023-09-29T04:10:09.907Z,5.13
2023-09-29T04:12:38.811Z,5.65
2023-09-29T04:15:08.261Z,6.13
2023-09-29T04:17:36.817Z,6.15
2023-09-29T04:20:05.380Z,5.97
2023-09-29T04:22:33.096Z,6.40
2023-09-29T04:25:00.451Z,6.38
2023-09-29T04:27:27.508Z,5.50
2023-09-29T04:29:55.049Z,5.70
2023-09-29T04:32:22.142Z,5.43
2023-09-29T04:34:49.049Z,5.88
2023-09-29T04:37:15.905Z,5.50
2023-09-29T04:39:42.988Z,5.15
2023-09-29T04:42:10.572Z,5.55
2023-09-29T04:44:38.481Z,5.90
2023-09-29T04:47:05.603Z,5.53
2023-09-29T04:49:32.791Z,5.65
2023-09-29T04:51:59.626Z,5.25
2023-09-29T04:54:26.916Z,5.40
2023-09-29T04:56:53.804Z,4.90
2023-09-29T04:59:20.645Z,5.30
2023-09-29T05:01:47.495Z,5.20
2023-09-29T05:04:14.470Z,5.13
2023-09-29T05:06:41.456Z,4.88
2023-09-29T05:09:08.302Z,5.40
2023-09-29T05:11:35.267Z,5.93
2023-09-29T05:14:02.422Z,5.90
2023-09-29T05:16:29.286Z,5.40
2023-09-29T05:18:56.739Z,5.72
2023-09-29T05:21:25.728Z,5.90
2023-09-29T05:23:52.595Z,5.40
2023-09-29T05:26:19.524Z,5.95
2023-09-29T05:28:46.439Z,6.20
2023-09-29T05:31:13.320Z,5.45
2023-09-29T05:33:40.285Z,5.55
2023-09-29T05:36:07.292Z,5.30
2023-09-29T05:38:34.153Z,5.50
2023-09-29T05:41:01.208Z,4.80
2023-09-29T05:43:28.064Z,5.10
2023-09-29T05:45:54.972Z,5.80
2023-09-29T05:48:21.914Z,4.82
2023-09-29T05:50:51.020Z,4.97
2023-09-29T05:53:18.003Z,4.75
2023-09-29T05:55:44.988Z,4.38
2023-09-29T05:58:11.805Z,4.55
2023-09-29T06:00:38.736Z,4.43
2023-09-29T06:03:05.956Z,4.50
2023-09-29T06:05:33.024Z,5.13
2023-09-29T06:07:59.929Z,5.68
2023-09-29T06:10:27.225Z,5.00
2023-09-29T06:12:54.533Z,4.85
2023-09-29T06:15:21.471Z,4.90
2023-09-29T06:17:48.570Z,4.95
2023-09-29T06:20:15.594Z,4.57
2023-09-29T06:22:42.428Z,3.80
2023-09-29T06:25:10.381Z,4.57
2023-09-29T06:27:37.235Z,4.60
2023-09-29T06:30:05.206Z,4.38
2023-09-29T06:32:32.140Z,4.50
2023-09-29T06:34:59.205Z,4.25
2023-09-29T06:37:26.006Z,4.60
2023-09-29T06:39:53.695Z,5.22
2023-09-29T06:42:21.113Z,4.90
2023-09-29T06:44:48.060Z,4.10
2023-09-29T06:47:15.075Z,4.07
2023-09-29T06:49:41.957Z,4.13
2023-09-29T06:52:08.868Z,3.95
2023-09-29T06:54:35.734Z,4.45
2023-09-29T06:57:02.654Z,4.25
2023-09-29T06:59:29.590Z,4.63
2023-09-29T07:01:56.516Z,4.13
2023-09-29T07:04:23.547Z,3.75
2023-09-29T07:06:50.571Z,4.13
2023-09-29T07:09:17.573Z,3.50
2023-09-29T07:11:45.654Z,3.72
2023-09-29T07:14:12.969Z,3.95
2023-09-29T07:16:40.922Z,3.58
2023-09-29T07:19:08.022Z,3.20
2023-09-29T07:21:34.961Z,3.42
2023-09-29T07:24:01.830Z,3.67
2023-09-29T07:26:28.660Z,4.05
2023-09-29T07:28:55.958Z,3.83
2023-09-29T07:31:23.189Z,3.45
2023-09-29T07:33:50.301Z,2.97
2023-09-29T07:36:17.530Z,3.53
2023-09-29T07:38:44.509Z,3.10
2023-09-29T07:41:11.825Z,3.28
2023-09-29T07:43:38.694Z,3.90
2023-09-29T07:46:05.725Z,3.33
2023-09-29T07:48:32.657Z,3.17
2023-09-29T07:51:00.570Z,3.58
2023-09-29T07:53:27.542Z,3.78
2023-09-29T07:55:54.369Z,4.25
2023-09-29T07:58:21.217Z,3.33
2023-09-29T08:00:48.080Z,3.20
2023-09-29T08:03:15.297Z,3.05
2023-09-29T08:05:42.304Z,4.05
2023-09-29T08:08:09.295Z,2.97
2023-09-29T08:10:36.376Z,2.97
2023-09-29T08:13:03.232Z,3.35
2023-09-29T08:15:30.071Z,3.47
2023-09-29T08:17:56.965Z,3.53
2023-09-29T08:20:23.878Z,3.65
2023-09-29T08:22:51.504Z,3.47
2023-09-29T08:25:21.158Z,3.47
2023-09-29T08:27:48.000Z,3.53
2023-09-29T08:30:15.229Z,3.80
2023-09-29T08:32:44.896Z,3.15
2023-09-29T08:35:16.131Z,3.85
2023-09-29T08:37:45.033Z,3.70
2023-09-29T08:40:17.633Z,3.88
2023-09-29T08:42:50.546Z,3.63
2023-09-29T08:45:19.450Z,3.40
2023-09-29T08:47:51.596Z,3.60
2023-09-29T08:50:18.969Z,3.50
2023-09-29T08:52:46.763Z,3.70
2023-09-29T08:55:14.131Z,3.13
2023-09-29T08:57:45.333Z,3.75
2023-09-29T09:00:14.030Z,4.10
2023-09-29T09:02:45.833Z,3.30
2023-09-29T09:05:16.139Z,3.85
2023-09-29T09:07:44.649Z,4.68
2023-09-29T09:10:23.078Z,3.72
2023-09-29T09:13:00.512Z,3.65
2023-09-29T09:15:28.120Z,3.00
2023-09-29T09:17:56.085Z,3.22
2023-09-29T09:20:24.935Z,3.75
2023-09-29T09:23:04.790Z,3.33
2023-09-29T09:25:44.342Z,3.15
2023-09-29T09:28:20.593Z,3.67
2023-09-29T09:30:52.530Z,3.58
2023-09-29T09:33:22.740Z,3.33
2023-09-29T09:35:51.128Z,3.20
2023-09-29T09:38:18.769Z,3.60
2023-09-29T09:40:48.704Z,3.30
2023-09-29T09:43:16.822Z,3.88
2023-09-29T09:45:48.800Z,4.15
2023-09-29T09:48:22.026Z,3.63
2023-09-29T09:50:52.439Z,3.22
2023-09-29T09:53:22.120Z,3.85
2023-09-29T09:55:57.118Z,3.25
2023-09-29T09:58:24.867Z,3.15
2023-09-29T10:00:56.378Z,3.63
2023-09-29T10:03:26.398Z,3.00
2023-09-29T10:05:54.769Z,2.95
2023-09-29T10:08:40.331Z,3.33
2023-09-29T10:11:16.110Z,2.80
2023-09-29T10:13:45.694Z,3.20
2023-09-29T10:16:24.619Z,2.97
2023-09-29T10:18:57.280Z,2.83
2023-09-29T10:21:24.247Z,3.30
2023-09-29T10:23:51.834Z,2.83
2023-09-29T10:26:21.814Z,3.15
2023-09-29T10:28:48.752Z,3.65
2023-09-29T10:31:28.985Z,2.90
2023-09-29T10:33:57.981Z,2.58
2023-09-29T10:36:27.136Z,2.80
2023-09-29T10:39:01.116Z,2.60
2023-09-29T10:41:36.409Z,2.83
2023-09-29T10:44:05.605Z,3.10
2023-09-29T10:46:32.956Z,2.97
2023-09-29T10:49:00.365Z,3.05
2023-09-29T10:51:31.692Z,2.38
2023-09-29T10:54:04.692Z,2.85
2023-09-29T10:56:31.743Z,2.58
2023-09-29T10:58:59.798Z,2.88
2023-09-29T11:01:33.464Z,2.90
2023-09-29T11:04:10.001Z,2.83
2023-09-29T11:06:48.216Z,2.25
2023-09-29T11:09:21.982Z,2.72
2023-09-29T11:11:49.993Z,2.63
2023-09-29T11:14:18.273Z,2.53
2023-09-29T11:16:56.187Z,2.47
2023-09-29T11:19:23.026Z,2.30
2023-09-29T11:21:51.246Z,2.65
2023-09-29T11:24:20.790Z,2.50
2023-09-29T11:26:49.550Z,2.35
2023-09-29T11:29:24.610Z,2.13
2023-09-29T11:31:55.220Z,2.42
2023-09-29T11:34:22.993Z,2.70
2023-09-29T11:36:51.263Z,2.92
2023-09-29T11:39:20.646Z,2.70
2023-09-29T11:41:47.788Z,2.47
2023-09-29T11:44:17.072Z,2.28
2023-09-29T11:46:45.036Z,2.40
2023-09-29T11:49:12.748Z,2.45
2023-09-29T11:51:39.708Z,2.45
2023-09-29T11:54:07.051Z,2.20
2023-09-29T11:56:34.575Z,2.30
2023-09-29T11:59:01.491Z,2.30
2023-09-29T12:01:28.768Z,2.30
2023-09-29T12:03:57.100Z,2.70
2023-09-29T12:06:24.294Z,2.10
2023-09-29T12:08:51.267Z,2.38
2023-09-29T12:11:20.367Z,2.08
2023-09-29T12:13:48.961Z,1.80
2023-09-29T12:16:16.445Z,2.55
2023-09-29T12:18:43.991Z,2.38
2023-09-29T12:21:12.867Z,2.55
2023-09-29T12:23:40.827Z,2.15
2023-09-29T12:26:09.232Z,2.00
2023-09-29T12:28:36.610Z,2.30
2023-09-29T12:31:03.961Z,2.15
2023-09-29T12:33:31.083Z,2.50
2023-09-29T12:35:58.076Z,2.30
2023-09-29T12:38:24.931Z,2.47
2023-09-29T12:40:52.777Z,1.95
2023-09-29T12:43:19.565Z,2.00
2023-09-29T12:45:46.439Z,2.55
2023-09-29T12:48:13.292Z,2.30
2023-09-29T12:50:41.501Z,2.20
2023-09-29T12:53:08.360Z,2.45
2023-09-29T12:55:38.931Z,2.92
2023-09-29T12:58:09.992Z,2.75
2023-09-29T13:00:37.030Z,2.53
2023-09-29T13:03:07.563Z,2.28
2023-09-29T13:05:39.195Z,2.42
2023-09-29T13:08:07.118Z,2.40
2023-09-29T13:10:38.284Z,1.95
2023-09-29T13:13:06.677Z,2.22
2023-09-29T13:15:34.362Z,2.17
2023-09-29T13:18:01.570Z,2.00
2023-09-29T13:20:28.546Z,2.33
2023-09-29T13:22:55.864Z,1.92
2023-09-29T13:25:23.200Z,3.13
2023-09-29T13:27:50.314Z,2.40
2023-09-29T13:30:18.109Z,2.83
2023-09-29T13:32:45.528Z,2.35
2023-09-29T13:35:12.544Z,4.97
2023-09-29T13:37:41.249Z,3.35
2023-09-29T13:40:08.972Z,2.80
2023-09-29T13:42:37.426Z,2.42
2023-09-29T13:45:06.321Z,2.22
2023-09-29T13:47:34.329Z,2.83
2023-09-29T13:50:02.014Z,2.65
2023-09-29T13:52:30.504Z,2.63
2023-09-29T13:54:57.425Z,2.58
2023-09-29T13:57:25.115Z,2.72
2023-09-29T13:59:52.179Z,2.38
2023-09-29T14:02:19.055Z,2.63
2023-09-29T14:04:46.387Z,2.40
2023-09-29T14:07:13.530Z,2.50
2023-09-29T14:09:41.211Z,2.72
2023-09-29T14:12:11.409Z,2.45
2023-09-29T14:14:38.571Z,2.35
2023-09-29T14:17:06.158Z,2.38
2023-09-29T14:19:33.522Z,2.55
2023-09-29T14:22:00.421Z,2.20
2023-09-29T14:24:27.283Z,2.13
2023-09-29T14:26:54.202Z,3.15
2023-09-29T14:29:21.211Z,2.55
2023-09-29T14:31:48.605Z,2.60
2023-09-29T14:34:16.876Z,2.83
2023-09-29T14:36:44.671Z,2.58
2023-09-29T14:39:12.116Z,2.28
2023-09-29T14:41:39.206Z,2.53
2023-09-29T14:44:06.803Z,2.40
2023-09-29T14:46:34.166Z,2.85
2023-09-29T14:49:02.337Z,2.28
2023-09-29T14:51:29.702Z,2.45
2023-09-29T14:53:56.841Z,2.00
2023-09-29T14:56:24.663Z,2.75
2023-09-29T14:58:51.562Z,2.40
2023-09-29T15:01:19.215Z,2.17
2023-09-29T15:03:46.784Z,2.10
2023-09-29T15:06:15.533Z,2.50
2023-09-29T15:08:42.864Z,2.30
2023-09-29T15:11:11.554Z,2.80
2023-09-29T15:13:40.852Z,2.67
2023-09-29T15:16:14.717Z,2.75
2023-09-29T15:18:50.675Z,3.47
2023-09-29T15:21:21.361Z,4.40
2023-09-29T15:23:56.010Z,3.70
2023-09-29T15:26:25.338Z,4.18
2023-09-29T15:28:52.383Z,3.55
2023-09-29T15:31:19.354Z,3.53
2023-09-29T15:33:46.569Z,3.90
2023-09-29T15:36:13.654Z,3.78
2023-09-29T15:38:40.886Z,4.45
2023-09-29T15:41:09.026Z,3.72
2023-09-29T15:43:36.115Z,3.72
2023-09-29T15:46:14.093Z,3.08
2023-09-29T15:48:43.848Z,3.15
2023-09-29T15:51:12.148Z,3.40
2023-09-29T15:53:41.949Z,2.80
2023-09-29T15:56:08.841Z,2.75
2023-09-29T15:58:38.922Z,2.92
2023-09-29T16:01:08.229Z,3.45
2023-09-29T16:03:35.324Z,3.45
2023-09-29T16:06:06.790Z,3.47
2023-09-29T16:08:34.706Z,3.22
2023-09-29T16:11:02.140Z,3.28
2023-09-29T16:13:29.179Z,2.83
2023-09-29T16:15:57.120Z,2.65
2023-09-29T16:18:24.222Z,2.97
2023-09-29T16:20:51.206Z,3.30
2023-09-29T16:23:18.235Z,3.60
2023-09-29T16:25:45.099Z,2.97
2023-09-29T16:28:12.384Z,3.15
2023-09-29T16:30:39.709Z,3.25
2023-09-29T16:33:06.911Z,3.10
2023-09-29T16:35:37.375Z,3.10
2023-09-29T16:38:05.194Z,2.92
2023-09-29T16:40:32.008Z,3.25
2023-09-29T16:42:58.911Z,2.83
2023-09-29T16:45:25.878Z,2.80
2023-09-29T16:47:52.782Z,3.42
2023-09-29T16:50:19.916Z,3.08
2023-09-29T16:52:46.873Z,3.28
2023-09-29T16:55:13.697Z,2.65
2023-09-29T16:57:40.576Z,3.05
2023-09-29T17:00:09.339Z,2.80
2023-09-29T17:02:36.451Z,2.95
2023-09-29T17:05:04.030Z,2.78
2023-09-29T17:07:30.848Z,2.80
2023-09-29T17:09:57.688Z,2.70
2023-09-29T17:12:24.711Z,3.00
2023-09-29T17:14:51.727Z,2.53
2023-09-29T17:17:18.671Z,2.85
2023-09-29T17:19:50.313Z,3.08
2023-09-29T17:22:18.565Z,3.70
2023-09-29T17:24:45.586Z,3.60
2023-09-29T17:27:14.255Z,2.75
2023-09-29T17:29:41.088Z,2.50
2023-09-29T17:32:07.967Z,2.78
2023-09-29T17:34:35.113Z,2.30
2023-09-29T17:37:01.969Z,2.60
2023-09-29T17:39:28.855Z,2.05
2023-09-29T17:41:55.757Z,2.10
2023-09-29T17:44:22.832Z,2.60
2023-09-29T17:46:49.805Z,2.08
2023-09-29T17:49:16.848Z,2.05
2023-09-29T17:51:43.966Z,1.70
2023-09-29T17:54:11.324Z,1.75
2023-09-29T17:56:38.200Z,1.55
2023-09-29T17:59:05.117Z,1.50
2023-09-29T18:01:32.535Z,1.38
2023-09-29T18:04:00.165Z,1.77
2023-09-29T18:06:30.064Z,1.50
2023-09-29T18:08:57.345Z,1.35
2023-09-29T18:11:24.743Z,1.08
2023-09-29T18:13:51.725Z,1.38
2023-09-29T18:16:18.634Z,1.40
2023-09-29T18:18:46.667Z,1.20
2023-09-29T18:21:13.737Z,1.25
2023-09-29T18:23:40.745Z,1.52
2023-09-29T18:26:08.954Z,1.70
2023-09-29T18:28:36.474Z,1.40
2023-09-29T18:31:08.073Z,1.13
2023-09-29T18:33:35.272Z,1.40
2023-09-29T18:36:03.444Z,1.10
2023-09-29T18:38:30.537Z,1.17
2023-09-29T18:40:57.557Z,1.20
2023-09-29T18:43:24.481Z,0.90
2023-09-29T18:46:00.835Z,1.00
2023-09-29T18:48:27.851Z,0.70
2023-09-29T18:50:55.127Z,0.80
2023-09-29T18:53:22.005Z,0.47
2023-09-29T18:55:49.034Z,0.60
2023-09-29T18:58:16.060Z,0.50
2023-09-29T19:00:42.951Z,0.47
2023-09-29T19:03:09.895Z,0.60
2023-09-29T19:05:38.988Z,0.40
2023-09-29T19:08:06.408Z,0.70
2023-09-29T19:10:33.652Z,0.88
2023-09-29T19:13:00.718Z,0.60
2023-09-29T19:15:27.654Z,0.68
2023-09-29T19:17:54.549Z,0.80
2023-09-29T19:20:21.580Z,0.65
2023-09-29T19:22:50.664Z,0.70
2023-09-29T19:25:18.871Z,0.77
2023-09-29T19:27:46.160Z,0.65
2023-09-29T19:30:13.426Z,0.65
2023-09-29T19:32:41.174Z,0.55
2023-09-29T19:35:08.561Z,0.68
2023-09-29T19:37:35.599Z,0.40
2023-09-29T19:40:02.472Z,0.65
2023-09-29T19:42:29.382Z,0.50
2023-09-29T19:44:56.298Z,1.15
2023-09-29T19:47:23.469Z,0.77
2023-09-29T19:49:50.294Z,0.60
2023-09-29T19:52:18.636Z,0.82
2023-09-29T19:54:45.595Z,1.00
2023-09-29T19:57:12.841Z,1.17
2023-09-29T19:59:39.646Z,1.15
2023-09-29T20:02:06.950Z,1.17
2023-09-29T20:04:33.883Z,0.95
2023-09-29T20:07:00.797Z,1.00
2023-09-29T20:09:27.727Z,1.08
2023-09-29T20:11:55.452Z,1.40
2023-09-29T20:14:22.279Z,1.20
2023-09-29T20:16:49.392Z,1.10
2023-09-29T20:19:16.577Z,1.50
2023-09-29T20:21:43.712Z,1.00
2023-09-29T20:24:10.828Z,1.52
2023-09-29T20:26:39.006Z,1.20
2023-09-29T20:29:06.029Z,1.35
2023-09-29T20:31:32.909Z,1.10
2023-09-29T20:34:00.586Z,1.10
2023-09-29T20:36:30.475Z,1.27
2023-09-29T20:39:04.347Z,1.25
2023-09-29T20:41:31.359Z,0.95
2023-09-29T20:43:58.421Z,1.30
2023-09-29T20:46:25.462Z,1.10
2023-09-29T20:48:52.424Z,1.40
2023-09-29T20:51:19.328Z,1.30
2023-09-29T20:53:46.351Z,1.45
2023-09-29T20:56:13.573Z,1.13
2023-09-29T20:58:40.696Z,1.73
2023-09-29T21:01:07.665Z,1.92
2023-09-29T21:03:35.465Z,1.35
2023-09-29T21:06:02.575Z,1.80
2023-09-29T21:08:29.522Z,1.58
2023-09-29T21:10:59.523Z,1.98
2023-09-29T21:13:26.329Z,1.45
2023-09-29T21:15:54.111Z,1.77
2023-09-29T21:18:22.285Z,1.60
2023-09-29T21:20:54.404Z,1.65
2023-09-29T21:23:21.499Z,1.30
2023-09-29T21:25:49.746Z,1.90
2023-09-29T21:28:16.684Z,2.50
2023-09-29T21:30:46.864Z,2.30
2023-09-29T21:33:13.821Z,1.48
2023-09-29T21:35:40.732Z,2.00
2023-09-29T21:38:08.141Z,2.05
2023-09-29T21:40:35.033Z,2.28
2023-09-29T21:43:01.874Z,1.80
2023-09-29T21:45:28.829Z,2.00
2023-09-29T21:47:55.747Z,2.00
2023-09-29T21:50:22.838Z,1.75
2023-09-29T21:52:49.755Z,2.25
2023-09-29T21:55:16.571Z,2.10
2023-09-29T21:57:44.113Z,2.42
2023-09-29T22:00:17.599Z,2.28
2023-09-29T22:02:45.840Z,2.20
2023-09-29T22:05:19.198Z,2.33
2023-09-29T22:07:46.044Z,2.47
2023-09-29T22:10:15.318Z,2.47
2023-09-29T22:12:43.749Z,2.10
2023-09-29T22:15:14.561Z,3.42
2023-09-29T22:17:42.557Z,2.50
2023-09-29T22:20:11.674Z,2.20
2023-09-29T22:22:39.713Z,2.15
2023-09-29T22:25:07.707Z,2.67
2023-09-29T22:27:36.539Z,2.42
2023-09-29T22:30:06.268Z,2.97
2023-09-29T22:32:33.217Z,2.45
2023-09-29T22:35:00.482Z,2.60
2023-09-29T22:37:27.396Z,2.92
2023-09-29T22:39:54.235Z,2.97
2023-09-29T22:42:22.438Z,2.20
2023-09-29T22:44:50.171Z,2.78
2023-09-29T22:47:17.221Z,3.00
2023-09-29T22:49:44.794Z,3.45
2023-09-29T22:52:12.707Z,3.10
2023-09-29T22:54:40.033Z,3.72
2023-09-29T22:57:07.267Z,2.42
2023-09-29T22:59:34.513Z,2.78
2023-09-29T23:02:01.865Z,3.30
2023-09-29T23:04:31.228Z,3.55
2023-09-29T23:06:58.324Z,4.03
2023-09-29T23:09:28.790Z,3.22
2023-09-29T23:11:59.108Z,3.25
2023-09-29T23:14:27.492Z,3.08
2023-09-29T23:16:55.271Z,3.20
2023-09-29T23:19:22.100Z,3.53
2023-09-29T23:21:48.939Z,3.38
2023-09-29T23:24:15.795Z,3.40
2023-09-29T23:26:42.641Z,3.20
2023-09-29T23:29:09.625Z,3.85
2023-09-29T23:31:36.720Z,3.33
2023-09-29T23:34:03.649Z,3.58
2023-09-29T23:36:30.624Z,3.58
2023-09-29T23:38:58.174Z,3.78
2023-09-29T23:41:26.592Z,3.50
2023-09-29T23:43:53.704Z,2.88
2023-09-29T23:46:20.631Z,3.63
2023-09-29T23:48:47.815Z,3.28
2023-09-29T23:51:14.700Z,3.25
2023-09-29T23:53:41.591Z,3.20
2023-09-29T23:56:09.907Z,4.00
2023-09-29T23:58:40.476Z,3.47
